X  Κλείσε Στοιχεία αεροπορικών μετεωρολογικών δεδομένων METAR     EHRD Rotterdam The Hague Airport
θερμοκρασία
10°C θερμοκρασία
9°C Σημείο δρόσου
94% Υγρασία



Ανεμος
3 KM/H
2 MPH
1 M/S
2 KTS



Ηρεμία
Vóreios
Τρέχουσες συνθήκες

Σαφή Σαφή
πίεση 1026.92 (hPa) - 30.32 (inHg)
Ορατότητα 5 (μίλι) - 8 (km)
Aεροδρόμιο
Κωδικός αεροδρομίου EHRD

Τοποθεσία: Rotterdam The Hague Airport
Απόσταση: 16 (km)

Metar:
EHRD 130155Z AUTO VRB02KT 8000 NCD 10/09 Q1027 TEMPO 4000 MIFG

ώρα: 13-06-2021 03:55 CEST